EIME

Casement Air Base Airport

Baldonnel, Ireland
METAR EIME 161700Z 25017KT 9999 VCSH FEW018CB SCT080 17/11 Q1012
Observed Flight Rules
Aug-16 @ 17:00 UTC (35 minutes ago) Visual Flight Rules
Wind Visibility Clouds
250° at 17 knots 10,000+ meters
  • Few at 1,800' AGL
  • Scattered at 8,000' AGL
Temperatures Readings
Current 17°C / 63°F
Dewpoint 11°C / 52°F
Humidity 68%
Altimeter 29.88" Hg
Pressure 1012 hPa
Elevation 93
METAR EIME 161700Z 25017KT 9999 VCSH FEW018CB SCT080 17/11 Q1012
Observed Flight Rules
Aug-16 @ 17:00 UTC
(35 minutes ago)
VFR
Wind Visibility
250° at 17 knots 10,000+ meters
Clouds
  • Few at 1,800' AGL
  • Scattered at 8,000' AGL
Temperature Dewpoint
17°C / 63°F 11°C / 52°F
Humidity Altimeter Pressure
68% 29.88" Hg 1012 hPa